sensor_id;sensor_type;location;lat;lon;timestamp;noise_LAeq;noise_LA_min;noise_LA_max;noise_LA01;noise_LA95
76339;Laerm;26644;50.248;19.032;2023-07-08T00:00:48;50.57;44.58;54.90;;
76339;Laerm;26644;50.248;19.032;2023-07-08T00:03:53;51.08;46.94;57.16;;
76339;Laerm;26644;50.248;19.032;2023-07-08T00:06:57;51.27;46.98;56.62;;
76339;Laerm;26644;50.248;19.032;2023-07-08T00:10:13;49.98;45.81;55.96;;
76339;Laerm;26644;50.248;19.032;2023-07-08T00:13:19;50.17;45.99;54.36;;
76339;Laerm;26644;50.248;19.032;2023-07-08T00:16:24;51.06;46.83;57.72;;
76339;Laerm;26644;50.248;19.032;2023-07-08T00:19:29;49.56;46.04;53.11;;
76339;Laerm;26644;50.248;19.032;2023-07-08T00:22:33;49.26;44.54;53.69;;
76339;Laerm;26644;50.248;19.032;2023-07-08T00:25:43;50.15;46.61;54.98;;
76339;Laerm;26644;50.248;19.032;2023-07-08T00:28:47;50.10;44.94;54.29;;
76339;Laerm;26644;50.248;19.032;2023-07-08T00:31:52;51.00;46.09;54.55;;
76339;Laerm;26644;50.248;19.032;2023-07-08T00:34:56;50.93;47.68;54.42;;
76339;Laerm;26644;50.248;19.032;2023-07-08T00:38:11;49.97;45.14;53.89;;
76339;Laerm;26644;50.248;19.032;2023-07-08T00:41:27;50.08;46.54;54.19;;
76339;Laerm;26644;50.248;19.032;2023-07-08T00:44:34;50.64;45.49;58.52;;
76339;Laerm;26644;50.248;19.032;2023-07-08T00:47:40;50.52;46.36;57.31;;
76339;Laerm;26644;50.248;19.032;2023-07-08T00:50:45;51.15;47.43;55.77;;
76339;Laerm;26644;50.248;19.032;2023-07-08T00:53:50;55.97;47.72;71.22;;
76339;Laerm;26644;50.248;19.032;2023-07-08T00:57:03;49.92;45.67;54.62;;
76339;Laerm;26644;50.248;19.032;2023-07-08T01:00:14;50.43;46.38;55.46;;
76339;Laerm;26644;50.248;19.032;2023-07-08T01:03:22;49.94;46.70;55.23;;
76339;Laerm;26644;50.248;19.032;2023-07-08T01:06:34;50.41;46.59;58.14;;
76339;Laerm;26644;50.248;19.032;2023-07-08T01:09:46;50.86;46.65;55.34;;
76339;Laerm;26644;50.248;19.032;2023-07-08T01:13:00;51.65;47.94;68.00;;
76339;Laerm;26644;50.248;19.032;2023-07-08T01:16:15;52.48;47.97;58.32;;
76339;Laerm;26644;50.248;19.032;2023-07-08T01:19:22;50.69;45.33;55.79;;
76339;Laerm;26644;50.248;19.032;2023-07-08T01:22:40;49.35;43.93;53.81;;
76339;Laerm;26644;50.248;19.032;2023-07-08T01:25:45;50.52;46.05;54.29;;
76339;Laerm;26644;50.248;19.032;2023-07-08T01:28:52;50.44;46.14;58.05;;
76339;Laerm;26644;50.248;19.032;2023-07-08T01:31:57;50.11;45.89;53.94;;
76339;Laerm;26644;50.248;19.032;2023-07-08T01:35:05;50.41;46.86;54.16;;
76339;Laerm;26644;50.248;19.032;2023-07-08T01:38:19;50.15;46.52;54.19;;
76339;Laerm;26644;50.248;19.032;2023-07-08T01:41:26;49.42;45.11;53.79;;
76339;Laerm;26644;50.248;19.032;2023-07-08T01:44:34;49.85;45.31;54.33;;
76339;Laerm;26644;50.248;19.032;2023-07-08T01:47:43;49.81;45.65;53.40;;
76339;Laerm;26644;50.248;19.032;2023-07-08T01:50:56;48.71;44.75;53.46;;
76339;Laerm;26644;50.248;19.032;2023-07-08T01:54:04;50.19;46.11;54.81;;
76339;Laerm;26644;50.248;19.032;2023-07-08T01:57:09;51.18;47.71;54.32;;
76339;Laerm;26644;50.248;19.032;2023-07-08T02:00:14;50.23;46.80;61.08;;
76339;Laerm;26644;50.248;19.032;2023-07-08T02:03:18;50.53;46.68;66.73;;
76339;Laerm;26644;50.248;19.032;2023-07-08T02:06:23;51.04;47.50;54.76;;
76339;Laerm;26644;50.248;19.032;2023-07-08T02:09:30;51.83;48.21;66.92;;
76339;Laerm;26644;50.248;19.032;2023-07-08T02:12:35;51.70;47.98;56.16;;
76339;Laerm;26644;50.248;19.032;2023-07-08T02:15:39;52.17;48.80;56.95;;
76339;Laerm;26644;50.248;19.032;2023-07-08T02:18:44;51.25;47.54;55.01;;
76339;Laerm;26644;50.248;19.032;2023-07-08T02:21:48;50.72;46.88;55.28;;
76339;Laerm;26644;50.248;19.032;2023-07-08T02:24:56;51.19;47.22;61.79;;
76339;Laerm;26644;50.248;19.032;2023-07-08T02:28:00;51.06;47.45;57.11;;
76339;Laerm;26644;50.248;19.032;2023-07-08T02:31:05;51.00;47.91;58.97;;
76339;Laerm;26644;50.248;19.032;2023-07-08T02:34:09;52.02;47.97;55.56;;
76339;Laerm;26644;50.248;19.032;2023-07-08T02:37:14;51.95;48.01;56.24;;
76339;Laerm;26644;50.248;19.032;2023-07-08T02:40:22;51.81;47.27;59.70;;
76339;Laerm;26644;50.248;19.032;2023-07-08T02:43:27;49.49;45.35;54.40;;
76339;Laerm;26644;50.248;19.032;2023-07-08T02:46:31;50.12;46.18;55.74;;
76339;Laerm;26644;50.248;19.032;2023-07-08T02:49:36;50.35;45.92;60.90;;
76339;Laerm;26644;50.248;19.032;2023-07-08T02:52:41;51.49;47.57;61.71;;
76339;Laerm;26644;50.248;19.032;2023-07-08T02:55:48;51.98;47.66;65.64;;
76339;Laerm;26644;50.248;19.032;2023-07-08T02:58:53;53.59;47.66;70.57;;
76339;Laerm;26644;50.248;19.032;2023-07-08T03:01:58;53.16;49.20;61.43;;
76339;Laerm;26644;50.248;19.032;2023-07-08T03:05:02;50.88;46.84;55.18;;
76339;Laerm;26644;50.248;19.032;2023-07-08T03:08:07;50.84;47.32;55.33;;
76339;Laerm;26644;50.248;19.032;2023-07-08T03:11:15;51.90;47.67;59.93;;
76339;Laerm;26644;50.248;19.032;2023-07-08T03:14:20;52.58;48.25;60.23;;
76339;Laerm;26644;50.248;19.032;2023-07-08T03:17:24;52.03;49.12;58.38;;
76339;Laerm;26644;50.248;19.032;2023-07-08T03:20:29;52.14;48.48;59.14;;
76339;Laerm;26644;50.248;19.032;2023-07-08T03:23:34;52.14;49.32;60.53;;
76339;Laerm;26644;50.248;19.032;2023-07-08T03:26:42;53.17;48.51;74.83;;
76339;Laerm;26644;50.248;19.032;2023-07-08T03:29:46;52.06;48.24;64.84;;
76339;Laerm;26644;50.248;19.032;2023-07-08T03:32:51;52.89;48.22;67.07;;
76339;Laerm;26644;50.248;19.032;2023-07-08T03:35:56;52.61;49.24;59.51;;
76339;Laerm;26644;50.248;19.032;2023-07-08T03:39:01;52.43;49.05;60.79;;
76339;Laerm;26644;50.248;19.032;2023-07-08T03:42:09;51.89;48.00;60.41;;
76339;Laerm;26644;50.248;19.032;2023-07-08T03:45:14;52.05;48.52;63.02;;
76339;Laerm;26644;50.248;19.032;2023-07-08T03:48:18;51.45;48.33;61.54;;
76339;Laerm;26644;50.248;19.032;2023-07-08T03:51:30;52.45;48.22;69.93;;
76339;Laerm;26644;50.248;19.032;2023-07-08T03:54:35;52.31;48.05;72.50;;
76339;Laerm;26644;50.248;19.032;2023-07-08T03:57:44;51.20;47.21;57.14;;
76339;Laerm;26644;50.248;19.032;2023-07-08T04:00:48;51.17;48.04;57.87;;
76339;Laerm;26644;50.248;19.032;2023-07-08T04:03:55;51.05;47.27;60.11;;
76339;Laerm;26644;50.248;19.032;2023-07-08T04:06:59;51.17;47.95;58.39;;
76339;Laerm;26644;50.248;19.032;2023-07-08T04:10:07;55.01;48.57;71.63;;
76339;Laerm;26644;50.248;19.032;2023-07-08T04:13:14;52.27;48.62;71.85;;
76339;Laerm;26644;50.248;19.032;2023-07-08T04:16:25;51.81;48.31;61.44;;
76339;Laerm;26644;50.248;19.032;2023-07-08T04:19:31;51.45;48.21;63.86;;
76339;Laerm;26644;50.248;19.032;2023-07-08T04:22:37;55.91;47.27;74.53;;
76339;Laerm;26644;50.248;19.032;2023-07-08T04:25:41;51.34;46.97;66.48;;
76339;Laerm;26644;50.248;19.032;2023-07-08T04:28:50;50.28;46.44;57.04;;
76339;Laerm;26644;50.248;19.032;2023-07-08T04:31:54;50.95;47.35;60.65;;
76339;Laerm;26644;50.248;19.032;2023-07-08T04:34:59;51.53;47.02;62.32;;
76339;Laerm;26644;50.248;19.032;2023-07-08T04:38:04;51.97;47.51;77.56;;
76339;Laerm;26644;50.248;19.032;2023-07-08T04:41:11;52.62;47.26;69.06;;
76339;Laerm;26644;50.248;19.032;2023-07-08T04:44:18;50.83;46.27;59.98;;
76339;Laerm;26644;50.248;19.032;2023-07-08T04:47:23;50.12;46.61;57.72;;
76339;Laerm;26644;50.248;19.032;2023-07-08T04:50:30;49.62;45.74;56.50;;
76339;Laerm;26644;50.248;19.032;2023-07-08T04:53:35;49.96;45.75;62.84;;
76339;Laerm;26644;50.248;19.032;2023-07-08T04:56:44;50.12;46.18;56.32;;
76339;Laerm;26644;50.248;19.032;2023-07-08T04:59:52;49.47;46.02;62.68;;
76339;Laerm;26644;50.248;19.032;2023-07-08T05:02:57;50.50;46.19;69.66;;
76339;Laerm;26644;50.248;19.032;2023-07-08T05:06:02;49.43;45.28;57.65;;
76339;Laerm;26644;50.248;19.032;2023-07-08T05:09:06;49.86;45.09;61.41;;
76339;Laerm;26644;50.248;19.032;2023-07-08T05:12:11;51.21;46.81;63.42;;
76339;Laerm;26644;50.248;19.032;2023-07-08T05:15:19;50.95;46.35;64.38;;
76339;Laerm;26644;50.248;19.032;2023-07-08T05:18:23;49.48;46.26;57.90;;
76339;Laerm;26644;50.248;19.032;2023-07-08T05:21:30;50.26;46.17;66.69;;
76339;Laerm;26644;50.248;19.032;2023-07-08T05:24:36;49.06;45.69;55.45;;
76339;Laerm;26644;50.248;19.032;2023-07-08T05:27:41;49.44;46.10;62.27;;
76339;Laerm;26644;50.248;19.032;2023-07-08T05:30:52;49.38;45.53;61.71;;
76339;Laerm;26644;50.248;19.032;2023-07-08T05:33:58;50.74;45.37;69.26;;
76339;Laerm;26644;50.248;19.032;2023-07-08T05:37:03;50.56;44.98;66.68;;
76339;Laerm;26644;50.248;19.032;2023-07-08T05:40:09;51.14;45.99;66.60;;
76339;Laerm;26644;50.248;19.032;2023-07-08T05:43:14;48.92;45.04;60.98;;
76339;Laerm;26644;50.248;19.032;2023-07-08T05:46:21;51.69;46.15;70.01;;
76339;Laerm;26644;50.248;19.032;2023-07-08T05:49:25;50.22;46.35;57.50;;
76339;Laerm;26644;50.248;19.032;2023-07-08T05:52:30;50.10;45.11;64.94;;
76339;Laerm;26644;50.248;19.032;2023-07-08T05:55:35;50.54;45.65;61.99;;
76339;Laerm;26644;50.248;19.032;2023-07-08T05:58:39;50.38;46.74;56.04;;
76339;Laerm;26644;50.248;19.032;2023-07-08T06:01:46;50.70;46.62;60.34;;
76339;Laerm;26644;50.248;19.032;2023-07-08T06:04:51;51.10;45.93;60.54;;
76339;Laerm;26644;50.248;19.032;2023-07-08T06:07:56;51.52;46.44;66.85;;
76339;Laerm;26644;50.248;19.032;2023-07-08T06:11:00;49.46;45.30;59.78;;
76339;Laerm;26644;50.248;19.032;2023-07-08T06:14:05;48.92;45.34;59.04;;
76339;Laerm;26644;50.248;19.032;2023-07-08T06:17:12;50.11;46.39;68.30;;
76339;Laerm;26644;50.248;19.032;2023-07-08T06:20:17;49.19;45.52;59.04;;
76339;Laerm;26644;50.248;19.032;2023-07-08T06:23:22;50.65;45.14;73.21;;
76339;Laerm;26644;50.248;19.032;2023-07-08T06:26:27;50.26;45.42;67.08;;
76339;Laerm;26644;50.248;19.032;2023-07-08T06:29:34;52.41;45.84;70.70;;
76339;Laerm;26644;50.248;19.032;2023-07-08T06:32:42;52.61;46.18;67.99;;
76339;Laerm;26644;50.248;19.032;2023-07-08T06:35:46;50.92;47.00;64.34;;
76339;Laerm;26644;50.248;19.032;2023-07-08T06:38:51;51.55;47.11;66.94;;
76339;Laerm;26644;50.248;19.032;2023-07-08T06:41:55;50.71;46.33;62.17;;
76339;Laerm;26644;50.248;19.032;2023-07-08T06:45:08;50.26;46.43;61.08;;
76339;Laerm;26644;50.248;19.032;2023-07-08T06:48:15;50.42;46.74;56.14;;
76339;Laerm;26644;50.248;19.032;2023-07-08T06:51:20;49.93;46.56;60.87;;
76339;Laerm;26644;50.248;19.032;2023-07-08T06:54:24;50.52;46.66;61.18;;
76339;Laerm;26644;50.248;19.032;2023-07-08T06:57:30;49.43;45.80;57.97;;
76339;Laerm;26644;50.248;19.032;2023-07-08T07:00:34;50.66;46.69;61.52;;
76339;Laerm;26644;50.248;19.032;2023-07-08T07:03:43;50.67;46.73;58.32;;
76339;Laerm;26644;50.248;19.032;2023-07-08T07:06:47;51.13;46.99;59.75;;
76339;Laerm;26644;50.248;19.032;2023-07-08T07:09:53;50.78;46.57;63.94;;
76339;Laerm;26644;50.248;19.032;2023-07-08T07:12:59;50.71;46.77;60.74;;
76339;Laerm;26644;50.248;19.032;2023-07-08T07:16:06;50.30;46.37;59.85;;
76339;Laerm;26644;50.248;19.032;2023-07-08T07:19:13;50.50;46.57;60.67;;
76339;Laerm;26644;50.248;19.032;2023-07-08T07:22:18;51.66;46.34;58.63;;
76339;Laerm;26644;50.248;19.032;2023-07-08T07:25:22;50.86;46.41;69.02;;
76339;Laerm;26644;50.248;19.032;2023-07-08T07:28:27;51.26;46.70;60.60;;
76339;Laerm;26644;50.248;19.032;2023-07-08T07:31:31;50.28;46.45;68.70;;
76339;Laerm;26644;50.248;19.032;2023-07-08T07:34:40;51.86;46.39;72.99;;
76339;Laerm;26644;50.248;19.032;2023-07-08T07:37:45;51.68;47.96;60.12;;
76339;Laerm;26644;50.248;19.032;2023-07-08T07:40:52;67.40;47.42;93.52;;
76339;Laerm;26644;50.248;19.032;2023-07-08T07:43:57;51.40;46.28;78.56;;
76339;Laerm;26644;50.248;19.032;2023-07-08T07:47:03;51.55;46.92;65.81;;
76339;Laerm;26644;50.248;19.032;2023-07-08T07:50:11;51.43;47.44;66.07;;
76339;Laerm;26644;50.248;19.032;2023-07-08T07:53:16;51.52;46.93;61.28;;
76339;Laerm;26644;50.248;19.032;2023-07-08T07:56:20;49.92;46.83;59.54;;
76339;Laerm;26644;50.248;19.032;2023-07-08T07:59:25;50.87;47.16;60.17;;
76339;Laerm;26644;50.248;19.032;2023-07-08T08:02:29;53.08;45.94;66.52;;
76339;Laerm;26644;50.248;19.032;2023-07-08T08:05:37;56.80;47.25;74.24;;
76339;Laerm;26644;50.248;19.032;2023-07-08T08:08:41;50.26;46.93;57.37;;
76339;Laerm;26644;50.248;19.032;2023-07-08T08:11:47;50.48;46.55;56.65;;
76339;Laerm;26644;50.248;19.032;2023-07-08T08:14:52;55.74;47.77;70.23;;
76339;Laerm;26644;50.248;19.032;2023-07-08T08:17:57;53.73;46.78;66.03;;
76339;Laerm;26644;50.248;19.032;2023-07-08T08:21:04;53.74;46.81;71.04;;
76339;Laerm;26644;50.248;19.032;2023-07-08T08:24:09;50.21;45.89;59.72;;
76339;Laerm;26644;50.248;19.032;2023-07-08T08:27:13;53.78;45.75;66.40;;
76339;Laerm;26644;50.248;19.032;2023-07-08T08:30:18;49.95;45.38;59.14;;
76339;Laerm;26644;50.248;19.032;2023-07-08T08:33:23;52.57;45.70;65.06;;
76339;Laerm;26644;50.248;19.032;2023-07-08T08:36:31;51.25;46.46;68.04;;
76339;Laerm;26644;50.248;19.032;2023-07-08T08:39:35;52.31;45.53;64.47;;
76339;Laerm;26644;50.248;19.032;2023-07-08T08:42:44;51.10;46.03;65.60;;
76339;Laerm;26644;50.248;19.032;2023-07-08T08:45:59;53.03;46.99;67.13;;
76339;Laerm;26644;50.248;19.032;2023-07-08T08:49:22;51.33;46.11;61.19;;
76339;Laerm;26644;50.248;19.032;2023-07-08T08:52:31;52.14;46.99;64.19;;
76339;Laerm;26644;50.248;19.032;2023-07-08T08:55:36;51.64;46.66;69.55;;
76339;Laerm;26644;50.248;19.032;2023-07-08T08:58:47;49.46;46.50;55.33;;
76339;Laerm;26644;50.248;19.032;2023-07-08T09:01:57;49.25;45.86;60.17;;
76339;Laerm;26644;50.248;19.032;2023-07-08T09:05:07;49.92;46.47;65.18;;
76339;Laerm;26644;50.248;19.032;2023-07-08T09:08:27;50.35;46.90;65.22;;
76339;Laerm;26644;50.248;19.032;2023-07-08T09:11:44;52.54;47.54;69.22;;
76339;Laerm;26644;50.248;19.032;2023-07-08T09:14:53;51.41;46.77;61.74;;
76339;Laerm;26644;50.248;19.032;2023-07-08T09:18:17;51.33;46.70;62.63;;
76339;Laerm;26644;50.248;19.032;2023-07-08T09:21:31;50.54;46.22;61.10;;
76339;Laerm;26644;50.248;19.032;2023-07-08T09:24:45;50.37;46.17;66.86;;
76339;Laerm;26644;50.248;19.032;2023-07-08T09:27:52;51.03;46.62;65.07;;
76339;Laerm;26644;50.248;19.032;2023-07-08T09:30:57;49.88;45.42;59.21;;
76339;Laerm;26644;50.248;19.032;2023-07-08T09:34:10;50.93;46.95;59.78;;
76339;Laerm;26644;50.248;19.032;2023-07-08T09:37:24;51.03;46.69;70.32;;
76339;Laerm;26644;50.248;19.032;2023-07-08T09:40:34;52.09;46.86;68.67;;
76339;Laerm;26644;50.248;19.032;2023-07-08T09:43:38;51.07;46.52;59.90;;
76339;Laerm;26644;50.248;19.032;2023-07-08T09:46:45;52.89;47.12;72.41;;
76339;Laerm;26644;50.248;19.032;2023-07-08T09:49:49;51.72;46.05;67.68;;
76339;Laerm;26644;50.248;19.032;2023-07-08T09:52:58;52.58;47.20;71.36;;
76339;Laerm;26644;50.248;19.032;2023-07-08T09:56:09;50.80;46.42;60.42;;
76339;Laerm;26644;50.248;19.032;2023-07-08T09:59:15;52.21;46.91;73.84;;
76339;Laerm;26644;50.248;19.032;2023-07-08T10:02:30;51.50;46.96;63.00;;
76339;Laerm;26644;50.248;19.032;2023-07-08T10:05:41;52.06;47.87;65.31;;
76339;Laerm;26644;50.248;19.032;2023-07-08T10:08:46;51.34;47.05;61.11;;
76339;Laerm;26644;50.248;19.032;2023-07-08T10:12:01;50.57;46.70;59.51;;
76339;Laerm;26644;50.248;19.032;2023-07-08T10:15:22;50.87;46.72;61.23;;
76339;Laerm;26644;50.248;19.032;2023-07-08T10:18:30;50.42;46.50;64.31;;
76339;Laerm;26644;50.248;19.032;2023-07-08T10:21:47;50.84;46.79;59.75;;
76339;Laerm;26644;50.248;19.032;2023-07-08T10:25:11;50.73;45.92;69.46;;
76339;Laerm;26644;50.248;19.032;2023-07-08T10:28:37;51.51;47.37;69.19;;
76339;Laerm;26644;50.248;19.032;2023-07-08T10:31:59;53.00;46.84;65.75;;
76339;Laerm;26644;50.248;19.032;2023-07-08T10:35:17;51.10;46.84;63.29;;
76339;Laerm;26644;50.248;19.032;2023-07-08T10:38:43;50.90;46.91;62.56;;
76339;Laerm;26644;50.248;19.032;2023-07-08T10:42:05;51.80;46.74;62.02;;
76339;Laerm;26644;50.248;19.032;2023-07-08T10:45:29;55.19;46.38;69.62;;
76339;Laerm;26644;50.248;19.032;2023-07-08T10:49:04;48.81;45.06;63.22;;
76339;Laerm;26644;50.248;19.032;2023-07-08T10:52:30;49.04;44.60;64.01;;
76339;Laerm;26644;50.248;19.032;2023-07-08T10:55:52;49.39;45.59;66.05;;
76339;Laerm;26644;50.248;19.032;2023-07-08T10:59:29;48.93;44.37;61.66;;
76339;Laerm;26644;50.248;19.032;2023-07-08T11:03:10;48.40;44.87;58.94;;
76339;Laerm;26644;50.248;19.032;2023-07-08T11:06:29;49.44;45.72;68.93;;
76339;Laerm;26644;50.248;19.032;2023-07-08T11:09:49;49.59;45.68;57.76;;
76339;Laerm;26644;50.248;19.032;2023-07-08T11:13:06;51.15;47.64;59.45;;
76339;Laerm;26644;50.248;19.032;2023-07-08T11:16:23;51.40;47.14;58.24;;
76339;Laerm;26644;50.248;19.032;2023-07-08T11:19:38;50.35;46.84;54.42;;
76339;Laerm;26644;50.248;19.032;2023-07-08T11:22:54;50.73;45.98;60.15;;
76339;Laerm;26644;50.248;19.032;2023-07-08T11:26:21;49.72;45.90;56.29;;
76339;Laerm;26644;50.248;19.032;2023-07-08T11:29:37;50.84;46.26;70.54;;
76339;Laerm;26644;50.248;19.032;2023-07-08T11:32:54;50.47;46.04;66.91;;
76339;Laerm;26644;50.248;19.032;2023-07-08T11:36:06;49.27;44.25;56.20;;
76339;Laerm;26644;50.248;19.032;2023-07-08T11:39:39;48.20;44.80;55.09;;
76339;Laerm;26644;50.248;19.032;2023-07-08T11:42:49;49.00;45.83;55.57;;
76339;Laerm;26644;50.248;19.032;2023-07-08T11:45:57;50.18;46.17;56.51;;
76339;Laerm;26644;50.248;19.032;2023-07-08T11:49:06;51.75;46.43;63.14;;
76339;Laerm;26644;50.248;19.032;2023-07-08T11:52:22;49.93;44.72;59.20;;
76339;Laerm;26644;50.248;19.032;2023-07-08T11:55:38;49.87;46.06;57.02;;
76339;Laerm;26644;50.248;19.032;2023-07-08T11:59:12;50.10;46.12;57.37;;
76339;Laerm;26644;50.248;19.032;2023-07-08T12:02:20;50.08;46.96;58.16;;
76339;Laerm;26644;50.248;19.032;2023-07-08T12:05:34;51.01;47.44;61.31;;
76339;Laerm;26644;50.248;19.032;2023-07-08T12:08:42;49.92;45.49;60.82;;
76339;Laerm;26644;50.248;19.032;2023-07-08T12:11:58;50.83;45.91;60.14;;
76339;Laerm;26644;50.248;19.032;2023-07-08T12:15:15;51.68;46.12;66.66;;
76339;Laerm;26644;50.248;19.032;2023-07-08T12:18:30;50.85;47.37;60.38;;
76339;Laerm;26644;50.248;19.032;2023-07-08T12:21:36;50.48;46.63;58.31;;
76339;Laerm;26644;50.248;19.032;2023-07-08T12:24:44;51.36;47.56;61.49;;
76339;Laerm;26644;50.248;19.032;2023-07-08T12:27:48;50.52;46.98;58.14;;
76339;Laerm;26644;50.248;19.032;2023-07-08T12:30:53;52.04;47.68;70.08;;
76339;Laerm;26644;50.248;19.032;2023-07-08T12:34:00;50.84;46.22;71.19;;
76339;Laerm;26644;50.248;19.032;2023-07-08T12:37:12;50.86;46.46;71.26;;
76339;Laerm;26644;50.248;19.032;2023-07-08T12:40:22;51.16;45.72;66.77;;
76339;Laerm;26644;50.248;19.032;2023-07-08T12:43:27;50.61;46.42;64.91;;
76339;Laerm;26644;50.248;19.032;2023-07-08T12:46:31;52.60;45.27;70.25;;
76339;Laerm;26644;50.248;19.032;2023-07-08T12:49:37;50.88;46.05;67.63;;
76339;Laerm;26644;50.248;19.032;2023-07-08T12:52:44;48.99;45.02;56.57;;
76339;Laerm;26644;50.248;19.032;2023-07-08T12:55:58;48.92;45.57;62.59;;
76339;Laerm;26644;50.248;19.032;2023-07-08T12:59:05;48.29;45.25;59.92;;
76339;Laerm;26644;50.248;19.032;2023-07-08T13:02:20;49.35;45.91;60.49;;
76339;Laerm;26644;50.248;19.032;2023-07-08T13:05:27;51.24;46.06;65.51;;
76339;Laerm;26644;50.248;19.032;2023-07-08T13:08:36;50.05;46.25;64.78;;
76339;Laerm;26644;50.248;19.032;2023-07-08T13:11:45;49.52;45.60;59.23;;
76339;Laerm;26644;50.248;19.032;2023-07-08T13:14:54;49.94;46.92;59.43;;
76339;Laerm;26644;50.248;19.032;2023-07-08T13:18:02;51.30;46.91;65.14;;
76339;Laerm;26644;50.248;19.032;2023-07-08T13:21:14;50.31;45.88;70.67;;
76339;Laerm;26644;50.248;19.032;2023-07-08T13:24:21;49.46;46.14;59.79;;
76339;Laerm;26644;50.248;19.032;2023-07-08T13:27:29;52.23;46.51;71.98;;
76339;Laerm;26644;50.248;19.032;2023-07-08T13:30:33;50.40;45.51;69.76;;
76339;Laerm;26644;50.248;19.032;2023-07-08T13:33:44;51.57;47.00;77.68;;
76339;Laerm;26644;50.248;19.032;2023-07-08T13:36:51;50.81;46.72;58.31;;
76339;Laerm;26644;50.248;19.032;2023-07-08T13:39:56;50.69;46.50;58.49;;
76339;Laerm;26644;50.248;19.032;2023-07-08T13:43:03;56.17;46.69;72.12;;
76339;Laerm;26644;50.248;19.032;2023-07-08T13:46:29;51.06;46.76;56.88;;
76339;Laerm;26644;50.248;19.032;2023-07-08T13:49:44;50.81;46.81;59.18;;
76339;Laerm;26644;50.248;19.032;2023-07-08T13:52:54;51.27;46.85;57.66;;
76339;Laerm;26644;50.248;19.032;2023-07-08T13:56:03;50.56;45.46;58.43;;
76339;Laerm;26644;50.248;19.032;2023-07-08T13:59:18;51.88;47.21;75.05;;
76339;Laerm;26644;50.248;19.032;2023-07-08T14:02:27;50.84;47.22;61.96;;
76339;Laerm;26644;50.248;19.032;2023-07-08T14:05:32;51.26;47.16;58.98;;
76339;Laerm;26644;50.248;19.032;2023-07-08T14:08:36;50.29;46.18;68.28;;
76339;Laerm;26644;50.248;19.032;2023-07-08T14:11:42;50.64;46.04;59.34;;
76339;Laerm;26644;50.248;19.032;2023-07-08T14:14:49;50.50;46.58;60.11;;
76339;Laerm;26644;50.248;19.032;2023-07-08T14:17:54;51.20;46.55;66.10;;
76339;Laerm;26644;50.248;19.032;2023-07-08T14:20:58;51.13;46.34;66.87;;
76339;Laerm;26644;50.248;19.032;2023-07-08T14:24:11;50.27;46.10;66.94;;
76339;Laerm;26644;50.248;19.032;2023-07-08T14:27:16;50.62;46.04;59.47;;
76339;Laerm;26644;50.248;19.032;2023-07-08T14:30:24;49.37;44.00;56.92;;
76339;Laerm;26644;50.248;19.032;2023-07-08T14:33:28;49.52;45.39;64.62;;
76339;Laerm;26644;50.248;19.032;2023-07-08T14:36:34;49.97;44.70;57.84;;
76339;Laerm;26644;50.248;19.032;2023-07-08T14:39:38;51.60;47.13;62.89;;
76339;Laerm;26644;50.248;19.032;2023-07-08T14:42:43;49.52;44.95;55.32;;
76339;Laerm;26644;50.248;19.032;2023-07-08T14:45:54;49.38;45.50;54.99;;
76339;Laerm;26644;50.248;19.032;2023-07-08T14:49:00;50.43;45.95;67.49;;
76339;Laerm;26644;50.248;19.032;2023-07-08T14:52:05;50.84;46.53;65.38;;
76339;Laerm;26644;50.248;19.032;2023-07-08T14:55:11;49.60;45.30;57.49;;
76339;Laerm;26644;50.248;19.032;2023-07-08T14:58:25;50.13;46.15;58.49;;
76339;Laerm;26644;50.248;19.032;2023-07-08T15:01:33;50.36;45.74;58.74;;
76339;Laerm;26644;50.248;19.032;2023-07-08T15:04:37;51.66;45.09;66.44;;
76339;Laerm;26644;50.248;19.032;2023-07-08T15:07:42;51.51;45.91;64.23;;
76339;Laerm;26644;50.248;19.032;2023-07-08T15:10:50;49.87;45.38;64.09;;
76339;Laerm;26644;50.248;19.032;2023-07-08T15:13:56;50.22;45.98;67.92;;
76339;Laerm;26644;50.248;19.032;2023-07-08T15:17:10;49.40;45.98;66.79;;
76339;Laerm;26644;50.248;19.032;2023-07-08T15:20:19;49.70;45.38;62.72;;
76339;Laerm;26644;50.248;19.032;2023-07-08T15:23:23;50.54;46.16;58.59;;
76339;Laerm;26644;50.248;19.032;2023-07-08T15:26:28;49.01;44.60;60.91;;
76339;Laerm;26644;50.248;19.032;2023-07-08T15:29:33;49.77;44.91;57.76;;
76339;Laerm;26644;50.248;19.032;2023-07-08T15:32:41;49.01;44.93;61.22;;
76339;Laerm;26644;50.248;19.032;2023-07-08T15:35:45;48.81;43.91;58.89;;
76339;Laerm;26644;50.248;19.032;2023-07-08T15:38:50;49.98;45.06;58.79;;
76339;Laerm;26644;50.248;19.032;2023-07-08T15:41:55;49.01;44.97;58.11;;
76339;Laerm;26644;50.248;19.032;2023-07-08T15:45:00;48.73;44.13;57.51;;
76339;Laerm;26644;50.248;19.032;2023-07-08T15:48:13;49.21;45.24;61.60;;
76339;Laerm;26644;50.248;19.032;2023-07-08T15:51:18;49.30;45.78;74.01;;
76339;Laerm;26644;50.248;19.032;2023-07-08T15:54:22;49.59;44.75;77.21;;
76339;Laerm;26644;50.248;19.032;2023-07-08T15:57:28;50.71;44.57;68.68;;
76339;Laerm;26644;50.248;19.032;2023-07-08T16:00:36;53.64;44.12;74.56;;
76339;Laerm;26644;50.248;19.032;2023-07-08T16:03:45;53.48;44.82;73.35;;
76339;Laerm;26644;50.248;19.032;2023-07-08T16:06:49;50.93;45.98;70.18;;
76339;Laerm;26644;50.248;19.032;2023-07-08T16:09:55;49.03;44.34;61.37;;
76339;Laerm;26644;50.248;19.032;2023-07-08T16:13:00;49.33;45.07;55.40;;
76339;Laerm;26644;50.248;19.032;2023-07-08T16:16:06;49.86;46.29;56.28;;
76339;Laerm;26644;50.248;19.032;2023-07-08T16:19:14;50.32;46.63;59.33;;
76339;Laerm;26644;50.248;19.032;2023-07-08T16:22:19;51.81;47.84;62.44;;
76339;Laerm;26644;50.248;19.032;2023-07-08T16:25:31;49.83;45.48;59.49;;
76339;Laerm;26644;50.248;19.032;2023-07-08T16:28:41;50.99;46.72;65.20;;
76339;Laerm;26644;50.248;19.032;2023-07-08T16:31:47;49.83;45.96;60.92;;
76339;Laerm;26644;50.248;19.032;2023-07-08T16:34:55;50.18;46.34;65.80;;
76339;Laerm;26644;50.248;19.032;2023-07-08T16:37:59;49.93;45.09;58.36;;
76339;Laerm;26644;50.248;19.032;2023-07-08T16:41:04;48.14;45.09;53.55;;
76339;Laerm;26644;50.248;19.032;2023-07-08T16:44:14;55.78;46.23;71.76;;
76339;Laerm;26644;50.248;19.032;2023-07-08T16:47:21;50.62;45.69;63.48;;
76339;Laerm;26644;50.248;19.032;2023-07-08T16:50:28;49.87;45.54;66.60;;
76339;Laerm;26644;50.248;19.032;2023-07-08T16:53:33;48.97;45.07;57.85;;
76339;Laerm;26644;50.248;19.032;2023-07-08T16:56:37;48.48;45.43;56.60;;
76339;Laerm;26644;50.248;19.032;2023-07-08T16:59:42;49.69;46.10;60.81;;
76339;Laerm;26644;50.248;19.032;2023-07-08T17:02:48;50.61;45.91;69.69;;
76339;Laerm;26644;50.248;19.032;2023-07-08T17:05:56;49.48;46.01;61.91;;
76339;Laerm;26644;50.248;19.032;2023-07-08T17:09:00;50.24;46.59;59.07;;
76339;Laerm;26644;50.248;19.032;2023-07-08T17:12:09;50.44;47.00;56.44;;
76339;Laerm;26644;50.248;19.032;2023-07-08T17:15:16;51.29;45.70;63.91;;
76339;Laerm;26644;50.248;19.032;2023-07-08T17:18:23;50.23;45.66;67.99;;